Time;durP1;ratioP1;P1;durP2;ratioP2;P2;SDS_P1;SDS_P2;PMS_P1;PMS_P2;Temp;Humidity;BMP_temperature;BMP_pressure;BME280_temperature;BME280_humidity;BME280_pressure;Samples;Min_cycle;Max_cycle;Signal;HPM_P1;HPM_P2
2024/04/18 00:01:28;;;;;;;;;6.25;6.25;;;;;7.70;100.00;98373.22;6321418;20;1816011;-50
2024/04/18 00:03:54;;;;;;;;;5.00;5.00;;;;;7.56;100.00;98376.88;6306647;20;2733620;-50
2024/04/18 00:06:21;;;;;;;;;7.00;7.00;;;;;7.76;100.00;98371.94;6273741;20;2733228;-48
2024/04/18 00:08:48;;;;;;;;;8.50;6.00;;;;;7.70;100.00;98375.91;6321828;20;1818535;-52
2024/04/18 00:11:15;;;;;;;;;7.00;5.00;;;;;7.76;100.00;98372.78;6305292;20;2752383;-49
2024/04/18 00:13:41;;;;;;;;;9.00;6.00;;;;;7.19;100.00;98371.44;6273078;20;2734692;-47
2024/04/18 00:16:08;;;;;;;;;8.00;5.50;;;;;7.04;100.00;98361.81;6273287;20;2745053;-53
2024/04/18 00:18:34;;;;;;;;;6.00;6.00;;;;;7.52;100.00;98372.72;6272015;20;2736733;-49
2024/04/18 00:21:02;;;;;;;;;7.50;6.25;;;;;7.75;100.00;98371.09;6321315;20;1808693;-49
2024/04/18 00:23:28;;;;;;;;;5.00;5.00;;;;;7.78;100.00;98378.03;6305710;20;2745087;-50
2024/04/18 00:25:55;;;;;;;;;7.50;5.50;;;;;7.70;100.00;98384.78;6273058;20;2747161;-50
2024/04/18 00:28:21;;;;;;;;;10.00;8.00;;;;;7.79;100.00;98382.41;6269487;20;2766959;-48
2024/04/18 00:30:48;;;;;;;;;5.00;5.00;;;;;7.77;100.00;98382.53;6272267;20;2736734;-49
2024/04/18 00:33:14;;;;;;;;;7.00;7.00;;;;;7.83;100.00;98390.09;6274506;20;2732627;-47
2024/04/18 00:35:41;;;;;;;;;6.50;6.50;;;;;7.74;100.00;98385.44;6302431;20;2740354;-49
2024/04/18 00:38:07;;;;;;;;;8.00;6.00;;;;;7.79;100.00;98385.91;6305452;20;2732574;-49
2024/04/18 00:40:34;;;;;;;;;10.00;8.00;;;;;7.30;100.00;98383.19;6300594;20;2753504;-48
2024/04/18 00:43:00;;;;;;;;;4.50;4.50;;;;;7.42;100.00;98388.50;6270987;20;2752444;-44
2024/04/18 00:45:27;;;;;;;;;9.50;8.00;;;;;7.61;100.00;98388.09;6272501;20;2748448;-47
2024/04/18 00:47:54;;;;;;;;;10.50;7.50;;;;;7.51;100.00;98387.03;6271263;20;2766915;-48
2024/04/18 00:50:21;;;;;;;;;9.50;8.00;;;;;7.33;100.00;98391.84;6272026;20;2753448;-49
2024/04/18 00:52:48;;;;;;;;;9.00;9.00;;;;;7.55;100.00;98393.00;6274887;20;2731515;-47
2024/04/18 00:55:15;;;;;;;;;11.00;9.50;;;;;7.68;100.00;98392.03;6303058;20;2758621;-46
2024/04/18 00:57:42;;;;;;;;;6.00;6.00;;;;;7.52;100.00;98396.75;6272492;20;2745105;-47
2024/04/18 01:00:10;;;;;;;;;10.50;9.50;;;;;7.76;100.00;98393.31;6278027;20;2765066;-46
2024/04/18 01:02:39;;;;;;;;;13.00;8.00;;;;;7.73;100.00;98398.88;6293351;20;1818089;-46
2024/04/18 01:05:05;;;;;;;;;12.50;8.00;;;;;7.57;100.00;98397.28;6308698;20;2754458;-49
2024/04/18 01:07:35;;;;;;;;;9.33;9.00;;;;;7.52;100.00;98388.72;6318639;20;1798240;-46
2024/04/18 01:10:02;;;;;;;;;8.50;8.50;;;;;7.44;100.00;98391.94;6296877;20;1808549;-50
2024/04/18 01:12:29;;;;;;;;;6.00;6.00;;;;;7.42;100.00;98395.66;6310061;20;2741999;-50
2024/04/18 01:14:55;;;;;;;;;11.50;9.00;;;;;7.60;100.00;98389.03;6306826;20;2754446;-50
2024/04/18 01:17:22;;;;;;;;;11.50;10.00;;;;;7.23;100.00;98391.59;6274663;20;2790937;-46
2024/04/18 01:19:49;;;;;;;;;9.75;8.75;;;;;7.27;100.00;98389.59;6293829;20;1819590;-47
2024/04/18 01:22:17;;;;;;;;;10.50;9.50;;;;;7.48;100.00;98397.94;6306058;20;2772165;-48
2024/04/18 01:24:43;;;;;;;;;10.50;9.00;;;;;7.28;100.00;98391.28;6277666;20;2756556;-48
2024/04/18 01:27:12;;;;;;;;;12.20;8.80;;;;;7.37;100.00;98401.34;6300531;20;2753537;-49
2024/04/18 01:29:38;;;;;;;;;7.00;7.00;;;;;7.40;100.00;98394.94;6310126;20;2731698;-48
2024/04/18 01:32:05;;;;;;;;;8.50;8.50;;;;;7.32;100.00;98394.59;6326854;20;1803574;-47
2024/04/18 01:34:34;;;;;;;;;11.20;10.40;;;;;7.34;100.00;98398.03;6332186;20;2784752;-46
2024/04/18 01:37:00;;;;;;;;;15.00;9.50;;;;;7.24;100.00;98403.13;6274938;20;2779537;-46
2024/04/18 01:39:27;;;;;;;;;10.50;8.00;;;;;7.15;100.00;98399.28;6272913;20;2753414;-50
2024/04/18 01:41:53;;;;;;;;;9.00;9.00;;;;;7.13;100.00;98401.19;6270702;20;2731496;-47
2024/04/18 01:44:20;;;;;;;;;9.50;9.50;;;;;7.31;100.00;98404.44;6272349;20;2758740;-46
2024/04/18 01:46:47;;;;;;;;;8.00;8.00;;;;;7.32;100.00;98405.28;6275409;20;2741019;-48
2024/04/18 01:49:13;;;;;;;;;11.00;9.50;;;;;7.30;100.00;98404.56;6274465;20;2777326;-49
2024/04/18 01:51:42;;;;;;;;;11.20;8.60;;;;;7.32;100.00;98406.16;6303298;20;2751348;-46
2024/04/18 01:54:08;;;;;;;;;10.00;10.00;;;;;7.29;100.00;98410.84;6306104;20;2783602;-46
2024/04/18 01:56:36;;;;;;;;;7.50;7.50;;;;;7.29;100.00;98411.69;6293881;20;1815019;-46
2024/04/18 01:59:04;;;;;;;;;9.50;8.50;;;;;6.97;100.00;98428.06;6306888;20;2758800;-52
2024/04/18 02:01:31;;;;;;;;;11.50;8.50;;;;;7.23;100.00;98418.31;6272845;20;2760744;-48
2024/04/18 02:03:57;;;;;;;;;9.00;9.00;;;;;7.00;100.00;98421.66;6278156;20;2745158;-46
2024/04/18 02:06:24;;;;;;;;;8.00;8.00;;;;;6.87;100.00;98426.97;6302557;20;2746209;-47
2024/04/18 02:08:51;;;;;;;;;10.00;9.00;;;;;6.90;100.00;98436.59;6273095;20;2763889;-45
2024/04/18 02:11:18;;;;;;;;;9.25;8.50;;;;;7.47;100.00;98441.59;6291519;20;1810803;-52
2024/04/18 02:13:45;;;;;;;;;10.00;10.00;;;;;6.79;100.00;98440.84;6306211;20;2779464;-47
2024/04/18 02:16:11;;;;;;;;;9.00;9.00;;;;;6.81;100.00;98438.91;6276209;20;2740043;-47
2024/04/18 02:18:38;;;;;;;;;8.50;8.50;;;;;6.66;100.00;98428.41;6309662;20;2737782;-45
2024/04/18 02:21:04;;;;;;;;;9.00;9.00;;;;;7.10;100.00;98421.91;6307259;20;2735841;-48
2024/04/18 02:23:31;;;;;;;;;8.00;5.00;;;;;6.93;100.00;98412.38;6276494;20;2750324;-46
2024/04/18 02:25:57;;;;;;;;;9.00;9.00;;;;;6.97;100.00;98417.41;6271800;20;2750263;-46
2024/04/18 02:28:25;;;;;;;;;3.75;3.50;;;;;7.09;100.00;98415.72;6290487;20;1813959;-48
2024/04/18 02:30:53;;;;;;;;;12.20;11.00;;;;;7.09;100.00;98415.72;6327096;20;2783654;-46
2024/04/18 02:33:20;;;;;;;;;14.50;10.00;;;;;6.98;100.00;98420.94;6275589;20;2783735;-48
2024/04/18 02:35:49;;;;;;;;;12.50;10.00;;;;;7.26;100.00;98422.56;6272750;20;2794035;-48
2024/04/18 02:38:19;;;;;;;;;9.14;9.00;;;;;6.97;100.00;98414.72;6318155;20;1808726;-45
2024/04/18 02:40:46;;;;;;;;;10.00;9.00;;;;;6.98;100.00;98416.47;6306972;20;2748255;-46
2024/04/18 02:43:12;;;;;;;;;10.00;10.00;;;;;6.97;100.00;98416.53;6272452;20;2798176;-47
2024/04/18 02:45:41;;;;;;;;;9.00;9.00;;;;;7.08;100.00;98424.69;6302020;20;2754518;-45
2024/04/18 02:48:08;;;;;;;;;8.50;8.50;;;;;7.11;100.00;98421.81;6306419;20;2737945;-46
2024/04/18 02:50:36;;;;;;;;;12.80;11.40;;;;;7.08;100.00;98422.00;6297846;20;2788821;-45
2024/04/18 02:53:03;;;;;;;;;13.00;8.50;;;;;6.84;100.00;98419.19;6273925;20;2766912;-45
2024/04/18 02:55:32;;;;;;;;;9.00;9.00;;;;;6.94;100.00;98422.09;6315359;20;1808616;-45
2024/04/18 02:57:59;;;;;;;;;8.50;8.50;;;;;6.87;100.00;98429.63;6275048;20;2748170;-48
2024/04/18 03:00:25;;;;;;;;;9.00;9.00;;;;;7.00;100.00;98424.34;6276956;20;2745072;-46
2024/04/18 03:02:52;;;;;;;;;12.00;8.00;;;;;7.14;100.00;98426.09;6305375;20;2771151;-47
2024/04/18 03:05:20;;;;;;;;;14.60;12.60;;;;;7.08;100.00;98424.69;6300302;20;2789908;-46
2024/04/18 03:07:47;;;;;;;;;13.50;11.50;;;;;6.95;100.00;98426.47;6274936;20;2788862;-45
2024/04/18 03:10:14;;;;;;;;;16.00;11.00;;;;;6.98;100.00;98423.63;6274714;20;2802335;-45
2024/04/18 03:12:41;;;;;;;;;10.00;10.00;;;;;7.04;100.00;98425.84;6273533;20;2766979;-45
2024/04/18 03:15:08;;;;;;;;;10.00;10.00;;;;;7.08;100.00;98418.50;6273743;20;2785701;-46
2024/04/18 03:17:34;;;;;;;;;11.00;9.00;;;;;6.99;100.00;98414.63;6270409;20;2756650;-47
2024/04/18 03:20:02;;;;;;;;;9.75;9.50;;;;;6.95;100.00;98419.34;6289550;20;1818061;-47
2024/04/18 03:22:32;;;;;;;;;10.00;9.00;;;;;7.05;100.00;98424.88;6301838;20;2764942;-47
2024/04/18 03:25:00;;;;;;;;;10.00;10.00;;;;;6.91;100.00;98422.31;6273386;20;2791926;-45
2024/04/18 03:27:30;;;;;;;;;12.00;10.50;;;;;7.02;100.00;98422.44;6271748;20;2783640;-44
2024/04/18 03:29:58;;;;;;;;;14.00;11.33;;;;;7.03;100.00;98427.69;6272662;20;2790059;-47
2024/04/18 03:32:26;;;;;;;;;10.80;9.60;;;;;7.18;100.00;98419.56;6330902;20;2756577;-49
2024/04/18 03:34:53;;;;;;;;;9.50;8.00;;;;;7.21;100.00;98419.38;6304200;20;2754427;-45
2024/04/18 03:37:20;;;;;;;;;11.50;9.00;;;;;7.11;100.00;98434.28;6271680;20;2765356;-45
2024/04/18 03:39:48;;;;;;;;;10.80;10.80;;;;;7.11;100.00;98435.16;6297478;20;2787760;-46
2024/04/18 03:42:15;;;;;;;;;10.50;9.00;;;;;6.93;100.00;98425.72;6273622;20;2764884;-45
2024/04/18 03:44:45;;;;;;;;;10.60;9.00;;;;;6.93;100.00;98437.25;6299247;20;2761761;-47
2024/04/18 03:47:12;;;;;;;;;9.75;9.00;;;;;6.95;100.00;98439.81;6288542;20;1807074;-47
2024/04/18 03:49:39;;;;;;;;;9.00;9.00;;;;;6.79;100.00;98434.63;6304574;20;2728392;-50
2024/04/18 03:52:06;;;;;;;;;9.00;7.50;;;;;7.01;100.00;98428.75;6306334;20;2756536;-47
2024/04/18 03:54:34;;;;;;;;;10.40;10.40;;;;;7.01;100.00;98428.75;6299485;20;2788946;-47
2024/04/18 03:57:00;;;;;;;;;7.00;4.00;;;;;6.94;100.00;98438.94;6275028;20;3468027;-45
2024/04/18 03:59:29;;;;;;;;;12.60;12.60;;;;;7.05;100.00;98440.91;6294323;20;2797644;-45
2024/04/18 04:01:55;;;;;;;;;10.00;9.00;;;;;6.93;100.00;98441.75;6273515;20;2777356;-47
2024/04/18 04:04:23;;;;;;;;;14.00;14.00;;;;;6.94;100.00;98443.44;6273671;20;2804544;-45
2024/04/18 04:06:51;;;;;;;;;13.40;13.40;;;;;7.09;100.00;98444.25;6328341;20;2794088;-44
2024/04/18 04:09:19;;;;;;;;;11.50;9.50;;;;;6.81;100.00;98452.25;6297914;20;1881530;-44
2024/04/18 04:11:46;;;;;;;;;11.00;9.50;;;;;6.93;100.00;98457.75;6273285;20;2776328;-44
2024/04/18 04:14:12;;;;;;;;;9.00;8.00;;;;;7.08;100.00;98458.53;6275992;20;2743060;-44
2024/04/18 04:16:39;;;;;;;;;10.50;10.50;;;;;7.00;100.00;98459.03;6302791;20;2779538;-44
2024/04/18 04:19:06;;;;;;;;;13.00;10.00;;;;;7.17;100.00;98465.94;6271032;20;2798183;-44
2024/04/18 04:21:33;;;;;;;;;12.67;12.67;;;;;7.08;100.00;98456.69;6272097;20;3546180;-44
2024/04/18 04:24:00;;;;;;;;;15.00;15.00;;;;;7.14;100.00;98460.81;6305510;20;2815936;-44
2024/04/18 04:26:33;;;;;;;;;15.00;13.00;;;;;7.28;100.00;98460.72;6274370;20;2798197;-44
2024/04/18 04:29:00;;;;;;;;;13.00;10.50;;;;;7.23;100.00;98465.50;6272272;20;2794216;-43
2024/04/18 04:31:28;;;;;;;;;13.50;13.50;;;;;7.22;100.00;98466.47;6272756;20;2797175;-44
2024/04/18 04:33:56;;;;;;;;;13.00;11.00;;;;;7.13;100.00;98470.59;6270495;20;2784675;-45
2024/04/18 04:36:22;;;;;;;;;10.00;10.00;;;;;7.29;100.00;98465.06;6272711;20;2789883;-45
2024/04/18 04:38:50;;;;;;;;;6.75;6.75;;;;;7.35;100.00;98479.84;6290402;20;1796591;-45
2024/04/18 04:41:18;;;;;;;;;11.60;11.60;;;;;7.52;100.00;98476.88;6325007;20;2796151;-45
2024/04/18 04:43:45;;;;;;;;;11.00;11.00;;;;;7.39;100.00;98479.50;6272602;20;2781658;-46
2024/04/18 04:46:11;;;;;;;;;12.50;10.00;;;;;7.74;100.00;98480.72;6271686;20;2778450;-42
2024/04/18 04:48:40;;;;;;;;;13.60;11.00;;;;;7.84;100.00;98484.47;6292931;20;2788868;-45
2024/04/18 04:51:06;;;;;;;;;9.00;9.00;;;;;7.66;100.00;98489.25;6271900;20;2744047;-45
2024/04/18 04:53:34;;;;;;;;;12.00;11.33;;;;;7.82;100.00;98497.06;6271993;20;2796111;-46
2024/04/18 04:56:01;;;;;;;;;10.00;10.00;;;;;7.82;100.00;98502.41;6302011;20;2796144;-46
2024/04/18 04:58:28;;;;;;;;;10.50;8.50;;;;;7.80;100.00;98499.03;6270030;20;2760688;-45
2024/04/18 05:00:56;;;;;;;;;13.20;11.20;;;;;7.81;100.00;98503.41;6294017;20;2793109;-43
2024/04/18 05:03:23;;;;;;;;;12.00;10.00;;;;;8.06;100.00;98503.41;6271640;20;2792076;-49
2024/04/18 05:05:50;;;;;;;;;9.00;9.00;;;;;8.08;100.00;98512.19;6274582;20;2741980;-43
2024/04/18 05:08:17;;;;;;;;;9.00;9.00;;;;;8.16;100.00;98513.44;6270114;20;2749296;-45
2024/04/18 05:10:45;;;;;;;;;11.50;9.00;;;;;8.31;100.00;98517.69;6274858;20;2756542;-46
2024/04/18 05:13:13;;;;;;;;;11.00;11.00;;;;;8.34;100.00;98522.81;6268396;20;2793142;-45
2024/04/18 05:15:39;;;;;;;;;12.00;9.00;;;;;8.85;100.00;98527.25;6273608;20;2761778;-47
2024/04/18 05:18:10;;;;;;;;;7.00;5.50;;;;;8.89;100.00;98540.28;6272518;20;2748321;-46
2024/04/18 05:20:38;;;;;;;;;7.00;7.00;;;;;8.76;100.00;98534.97;6273834;20;2748289;-47
2024/04/18 05:23:06;;;;;;;;;7.00;7.00;;;;;10.66;100.00;98549.09;6273378;20;2742982;-48
2024/04/18 05:25:34;;;;;;;;;7.00;7.00;;;;;8.68;100.00;98536.50;6273827;20;2736796;-46
2024/04/18 05:28:10;;;;;;;;;8.50;8.50;;;;;8.44;100.00;98534.59;6342624;20;1800351;-49
2024/04/18 05:33:23;;;;;;;;;11.00;11.00;;;;;8.87;100.00;98538.69;6281965;20;2790925;-43
2024/04/18 05:35:52;;;;;;;;;13.20;11.00;;;;;9.97;100.00;98543.75;6294929;20;2789927;-45
2024/04/18 05:38:21;;;;;;;;;9.40;9.40;;;;;10.07;100.00;98539.41;6292312;20;2769121;-45
2024/04/18 05:40:49;;;;;;;;;10.33;10.33;;;;;10.05;100.00;98551.22;6269570;20;2787028;-45
2024/04/18 05:43:16;;;;;;;;;11.00;11.00;;;;;9.43;100.00;98547.88;6301175;20;2791947;-46
2024/04/18 05:45:47;;;;;;;;;7.33;7.33;;;;;9.08;100.00;98546.97;6317368;20;1800451;-50
2024/04/18 05:48:14;;;;;;;;;9.67;9.67;;;;;9.41;100.00;98541.78;6274053;20;2785695;-49
2024/04/18 05:50:41;;;;;;;;;8.00;8.00;;;;;8.98;100.00;98549.47;6309660;20;2746252;-49
2024/04/18 05:53:09;;;;;;;;;10.67;9.00;;;;;8.95;100.00;98553.22;6273351;20;2780514;-52
2024/04/18 05:55:35;;;;;;;;;10.00;10.00;;;;;8.84;100.00;98558.50;6306569;20;2785874;-48
2024/04/18 05:58:04;;;;;;;;;9.40;8.00;;;;;8.72;100.00;98556.72;6300545;20;2737793;-50
2024/04/18 06:00:31;;;;;;;;;9.33;9.33;;;;;8.97;100.00;98556.63;6305434;20;2768044;-51
2024/04/18 06:02:59;;;;;;;;;9.80;9.60;;;;;8.87;100.00;98562.78;6328865;20;2757709;-51
2024/04/18 06:05:26;;;;;;;;;11.00;10.00;;;;;9.38;100.00;98559.91;6272538;20;2782079;-47
2024/04/18 06:07:52;;;;;;;;;8.50;8.50;;;;;9.39;100.00;98572.31;6278555;20;2739884;-49
2024/04/18 06:10:19;;;;;;;;;11.00;11.00;;;;;9.57;100.00;98565.59;6274135;20;2792091;-48
2024/04/18 06:12:47;;;;;;;;;13.00;11.67;;;;;9.50;100.00;98563.47;6274326;20;2799245;-48
2024/04/18 06:15:14;;;;;;;;;17.00;16.00;;;;;9.73;100.00;98567.97;6306230;20;3531551;-47
2024/04/18 06:17:41;;;;;;;;;14.00;14.00;;;;;9.95;100.00;98571.66;6305709;20;2794057;-46
2024/04/18 06:20:08;;;;;;;;;10.00;9.00;;;;;10.20;100.00;98573.31;6277620;20;2766969;-50
2024/04/18 06:22:34;;;;;;;;;14.00;12.00;;;;;10.43;100.00;98576.94;6281199;20;2807609;-46
2024/04/18 06:25:01;;;;;;;;;10.00;9.00;;;;;10.68;100.00;98576.66;6278674;20;2765955;-45
2024/04/18 06:27:29;;;;;;;;;9.00;9.00;;;;;10.82;99.04;98574.69;6302001;20;2745089;-46
2024/04/18 06:29:56;;;;;;;;;10.00;10.00;;;;;10.75;92.58;98572.53;6305201;20;2779612;-51
2024/04/18 06:32:24;;;;;;;;;12.00;10.67;;;;;11.37;91.50;98583.63;6278232;20;2794088;-47
2024/04/18 06:34:51;;;;;;;;;12.50;8.00;;;;;11.16;87.48;98581.75;6308742;20;2761632;-47
2024/04/18 06:37:17;;;;;;;;;6.00;6.00;;;;;10.61;84.42;98583.53;6280276;20;2746107;-45
2024/04/18 06:39:44;;;;;;;;;5.00;5.00;;;;;11.10;84.48;98584.91;6276784;20;2756662;-47
2024/04/18 06:42:11;;;;;;;;;6.00;6.00;;;;;10.90;80.52;98583.00;6279933;20;2744196;-47
2024/04/18 06:44:37;;;;;;;;;8.00;8.00;;;;;10.82;85.36;98588.13;6277653;20;2750292;-45
2024/04/18 06:47:05;;;;;;;;;39.00;35.00;;;;;10.59;84.78;98593.53;6279458;20;3594029;-47
2024/04/18 06:49:33;;;;;;;;;23.33;23.33;;;;;10.71;82.78;98592.53;6271125;20;2853473;-46
2024/04/18 06:52:00;;;;;;;;;22.00;22.00;;;;;10.60;82.94;98595.22;6309162;20;3585720;-45
2024/04/18 06:54:28;;;;;;;;;17.67;16.00;;;;;10.80;86.45;98595.47;6272329;20;3563817;-45
2024/04/18 06:56:54;;;;;;;;;9.00;9.00;;;;;10.90;88.63;98596.41;6277630;20;2754454;-46
2024/04/18 06:59:21;;;;;;;;;9.00;9.00;;;;;10.62;88.83;98598.63;6273334;20;2744185;-47
2024/04/18 07:01:48;;;;;;;;;9.00;9.00;;;;;10.43;86.06;98603.75;6273717;20;2759650;-48
2024/04/18 07:04:16;;;;;;;;;11.50;10.00;;;;;10.32;85.88;98604.56;6279751;20;2786751;-47
2024/04/18 07:06:42;;;;;;;;;9.00;9.00;;;;;10.47;85.06;98606.06;6278773;20;2751396;-48
2024/04/18 07:09:09;;;;;;;;;10.00;10.00;;;;;10.36;84.26;98607.88;6274288;20;2796117;-46
2024/04/18 07:11:35;;;;;;;;;9.00;9.00;;;;;10.16;85.32;98612.91;6277749;20;2754449;-48
2024/04/18 07:14:03;;;;;;;;;10.67;9.00;;;;;10.45;83.31;98615.19;6275973;20;2768257;-47
2024/04/18 07:16:29;;;;;;;;;11.00;9.50;;;;;10.17;87.19;98616.47;6307393;20;2773610;-46
2024/04/18 07:18:57;;;;;;;;;8.00;8.00;;;;;10.43;83.97;98619.88;6278221;20;2744079;-46
2024/04/18 07:21:23;;;;;;;;;11.00;10.00;;;;;10.16;82.89;98629.00;6275848;20;2791041;-46
2024/04/18 07:23:50;;;;;;;;;9.00;9.00;;;;;10.05;85.51;98624.47;6268420;20;2760728;-48
2024/04/18 07:26:17;;;;;;;;;7.00;5.00;;;;;9.60;84.33;98628.81;6279850;20;2746112;-45
2024/04/18 07:28:43;;;;;;;;;7.50;7.50;;;;;9.54;84.57;98631.97;6277144;20;2745220;-45
2024/04/18 07:31:10;;;;;;;;;9.50;9.00;;;;;10.41;82.77;98640.59;6268302;20;2763916;-50
2024/04/18 07:33:37;;;;;;;;;8.00;6.50;;;;;10.79;79.30;98645.63;6279849;20;2742996;-45
2024/04/18 07:36:04;;;;;;;;;8.50;7.00;;;;;11.09;75.18;98639.63;6279497;20;2728380;-46
2024/04/18 07:38:30;;;;;;;;;8.00;7.00;;;;;11.47;73.13;98641.03;6278223;20;2730489;-45
2024/04/18 07:40:57;;;;;;;;;6.00;6.00;;;;;11.19;78.53;98645.97;6281095;20;2688843;-47
2024/04/18 07:43:23;;;;;;;;;8.50;8.50;;;;;12.19;75.70;98653.00;6277599;20;2740891;-46
2024/04/18 07:45:53;;;;;;;;;8.43;8.14;;;;;12.26;73.75;98659.59;6319424;20;1796118;-44
2024/04/18 07:48:20;;;;;;;;;7.50;7.50;;;;;12.05;73.45;98649.66;6306317;20;2744197;-48
2024/04/18 07:50:48;;;;;;;;;10.00;8.50;;;;;12.96;70.70;98656.19;6278328;20;2751326;-46
2024/04/18 07:53:14;;;;;;;;;6.00;6.00;;;;;13.76;68.67;98654.44;6280623;20;2735717;-45
2024/04/18 07:55:42;;;;;;;;;5.00;5.00;;;;;12.57;71.82;98670.44;6278457;20;2743137;-45
2024/04/18 07:58:08;;;;;;;;;8.00;8.00;;;;;12.38;74.75;98663.94;6274984;20;2736739;-48
2024/04/18 08:00:35;;;;;;;;;6.00;6.00;;;;;11.63;68.61;98665.66;6273687;20;2746139;-47
2024/04/18 08:03:03;;;;;;;;;5.60;5.60;;;;;11.38;72.85;98657.94;6310921;20;2744172;-45
2024/04/18 08:05:30;;;;;;;;;8.00;7.00;;;;;11.42;73.81;98656.69;6305750;20;2748200;-47
2024/04/18 08:08:00;;;;;;;;;6.43;6.43;;;;;11.43;74.36;98666.47;6319473;20;1797162;-44
2024/04/18 08:10:27;;;;;;;;;5.00;3.50;;;;;11.14;76.16;98658.09;6306692;20;2756565;-46
2024/04/18 08:12:53;;;;;;;;;7.00;7.00;;;;;11.44;70.86;98670.84;6276898;20;2735707;-45
2024/04/18 08:15:20;;;;;;;;;6.00;6.00;;;;;11.63;70.23;98671.03;6274769;20;2739879;-47
2024/04/18 08:17:46;;;;;;;;;7.00;7.00;;;;;11.16;67.41;98665.03;6275578;20;2746179;-47
2024/04/18 08:20:16;;;;;;;;;6.50;6.50;;;;;11.58;72.41;98667.88;6318262;20;1796194;-44
2024/04/18 08:22:42;;;;;;;;;6.50;6.50;;;;;11.89;67.78;98672.59;6306285;20;2729722;-45
2024/04/18 08:25:11;;;;;;;;;6.80;6.80;;;;;10.95;70.85;98669.41;6293700;20;2727835;-44
2024/04/18 08:27:41;;;;;;;;;9.43;7.86;;;;;11.91;70.86;98671.50;6347860;20;3482586;-44
2024/04/18 08:30:09;;;;;;;;;9.33;8.00;;;;;11.79;70.44;98664.41;6298398;20;2764880;-44
2024/04/18 08:32:36;;;;;;;;;7.00;7.00;;;;;11.69;71.73;98668.84;6303863;20;2738931;-47
2024/04/18 08:35:03;;;;;;;;;7.50;7.50;;;;;11.79;71.74;98675.16;6273460;20;2743054;-47
2024/04/18 08:37:33;;;;;;;;;7.14;6.29;;;;;11.16;73.72;98670.41;6317516;20;3461963;-44
2024/04/18 08:40:02;;;;;;;;;7.20;7.20;;;;;11.43;72.05;98671.84;6332387;20;2752414;-44
2024/04/18 08:42:31;;;;;;;;;8.50;8.50;;;;;11.70;71.54;98676.78;6307948;20;2744038;-47
2024/04/18 08:44:58;;;;;;;;;7.00;7.00;;;;;11.45;71.57;98674.38;6274429;20;2748315;-46
2024/04/18 08:47:31;;;;;;;;;8.00;8.00;;;;;11.35;72.63;98677.00;6279294;20;2750290;-45
2024/04/18 08:50:00;;;;;;;;;8.80;7.40;;;;;12.13;71.03;98677.75;6300048;20;2748191;-44
2024/04/18 08:52:34;;;;;;;;;7.00;7.00;;;;;12.17;70.56;98679.22;6307813;20;2741009;-45
2024/04/18 08:55:01;;;;;;;;;9.00;9.00;;;;;12.24;66.79;98681.28;6272793;20;2765075;-43
2024/04/18 08:57:37;;;;;;;;;6.80;6.00;;;;;12.71;67.21;98683.56;6298961;20;2739938;-45
2024/04/18 09:00:04;;;;;;;;;9.00;8.00;;;;;13.50;61.04;98683.78;6305275;20;2735734;-46
2024/04/18 09:02:35;;;;;;;;;6.43;6.43;;;;;12.35;62.17;98683.06;6316491;20;3461804;-44
2024/04/18 09:05:04;;;;;;;;;10.20;8.20;;;;;13.38;60.19;98687.59;6329307;20;2751786;-47
2024/04/18 09:07:30;;;;;;;;;4.00;4.00;;;;;13.74;60.06;98683.41;6307953;20;2740924;-48
2024/04/18 09:10:09;;;;;;;;;7.29;7.29;;;;;14.04;57.50;98679.75;6316765;20;3445061;-45
2024/04/18 09:12:36;;;;;;;;;8.50;7.00;;;;;13.69;64.04;98683.00;6308600;20;2735753;-46
2024/04/18 09:15:05;;;;;;;;;9.60;9.60;;;;;12.67;64.48;98677.59;6299777;20;2793103;-47
2024/04/18 09:17:32;;;;;;;;;8.00;7.00;;;;;12.98;61.83;98687.50;6276028;20;2469011;-48
2024/04/18 09:19:58;;;;;;;;;6.00;6.00;;;;;11.07;65.46;98670.28;6276470;20;2746123;-44
2024/04/18 09:22:25;;;;;;;;;8.00;7.00;;;;;11.58;65.91;98684.00;6281758;20;2738848;-48
2024/04/18 09:24:53;;;;;;;;;9.40;8.40;;;;;11.41;72.10;98695.28;6304377;20;2755509;-45
2024/04/18 09:27:20;;;;;;;;;11.00;11.00;;;;;10.40;86.89;98696.09;6307069;20;2787843;-48
2024/04/18 09:29:46;;;;;;;;;9.00;9.00;;;;;9.92;95.83;98696.09;6275769;20;2757575;-47
2024/04/18 09:32:15;;;;;;;;;14.00;14.00;;;;;9.75;100.00;98686.63;6282319;20;2796254;-45
2024/04/18 09:34:43;;;;;;;;;12.67;12.67;;;;;9.74;100.00;98686.75;6277222;20;3511762;-45
2024/04/18 09:37:16;;;;;;;;;9.29;8.14;;;;;9.83;100.00;98681.56;6351068;20;1808635;-48
2024/04/18 09:39:45;;;;;;;;;12.33;11.67;;;;;10.02;100.00;98686.38;6307311;20;3525294;-46
2024/04/18 09:42:26;;;;;;;;;13.00;12.50;;;;;10.09;100.00;98687.66;6311298;20;2779649;-46
2024/04/18 09:45:01;;;;;;;;;11.00;11.00;;;;;10.64;100.00;98687.13;6278185;20;2794159;-48
2024/04/18 09:47:29;;;;;;;;;13.00;13.00;;;;;11.51;93.74;98690.88;6311501;20;2786938;-46
2024/04/18 09:49:58;;;;;;;;;10.00;10.00;;;;;11.84;86.87;98689.09;6275758;20;3515871;-44
2024/04/18 09:52:25;;;;;;;;;11.50;9.00;;;;;12.30;81.53;98685.28;6314808;20;2773241;-44
2024/04/18 09:54:53;;;;;;;;;10.00;8.00;;;;;12.66;79.16;98696.56;6281133;20;2769338;-48
2024/04/18 09:57:23;;;;;;;;;8.00;8.00;;;;;12.94;77.18;98684.25;6307610;20;2751398;-46
2024/04/18 09:59:50;;;;;;;;;10.00;10.00;;;;;13.16;70.54;98688.59;6276405;20;2791951;-46
2024/04/18 10:02:23;;;;;;;;;11.40;11.40;;;;;13.72;69.17;98687.25;6301287;20;2798210;-45
2024/04/18 10:04:50;;;;;;;;;9.00;9.00;;;;;13.35;68.53;98683.34;6280985;20;2745065;-46
2024/04/18 10:07:21;;;;;;;;;8.00;8.00;;;;;12.85;73.18;98690.41;6280362;20;2748346;-45
2024/04/18 10:09:50;;;;;;;;;9.00;9.00;;;;;12.26;69.76;98694.56;6276227;20;2754572;-44
2024/04/18 10:12:18;;;;;;;;;8.50;8.50;;;;;11.84;70.28;98689.09;6277823;20;2752497;-49
2024/04/18 10:14:45;;;;;;;;;8.50;8.50;;;;;11.76;73.34;98691.56;6278928;20;2750378;-46
2024/04/18 10:17:32;;;;;;;;;7.00;7.00;;;;;11.42;70.86;98697.00;6281417;20;2739929;-47
2024/04/18 10:20:05;;;;;;;;;8.50;8.50;;;;;11.49;72.22;98695.53;6280643;20;2746129;-44
2024/04/18 10:22:35;;;;;;;;;6.50;6.50;;;;;11.44;72.54;98703.09;6278489;20;2742217;-45
2024/04/18 10:25:05;;;;;;;;;10.80;9.40;;;;;11.55;68.02;98695.00;6307594;20;2785788;-48
2024/04/18 10:27:42;;;;;;;;;7.50;6.50;;;;;11.99;64.44;98692.38;6280922;20;2742021;-49
2024/04/18 10:30:18;;;;;;;;;9.00;9.00;;;;;13.39;59.88;98690.13;6273765;20;2761848;-45
2024/04/18 10:32:47;;;;;;;;;4.00;4.00;;;;;12.50;63.56;98699.72;6279259;20;2738885;-47
2024/04/18 10:35:16;;;;;;;;;6.00;5.00;;;;;12.16;65.92;98699.03;6279458;20;2746245;-50
2024/04/18 10:37:50;;;;;;;;;7.00;7.00;;;;;12.03;66.52;98697.38;6281220;20;2736742;-44
2024/04/18 10:40:17;;;;;;;;;6.00;4.00;;;;;12.01;65.23;98685.88;6279113;20;2734772;-48
2024/04/18 10:42:43;;;;;;;;;7.00;6.00;;;;;11.98;69.86;98687.97;6279660;20;2736751;-45
2024/04/18 10:45:10;;;;;;;;;7.00;7.00;;;;;12.03;67.01;98697.38;6277831;20;2742059;-48
2024/04/18 10:47:40;;;;;;;;;6.50;6.50;;;;;12.36;62.63;98695.50;6277945;20;2737914;-48
2024/04/18 10:50:07;;;;;;;;;12.00;7.50;;;;;13.44;62.09;98694.28;6279078;20;2756549;-47
2024/04/18 10:52:33;;;;;;;;;6.00;6.00;;;;;13.03;61.71;98699.59;6279250;20;2739988;-45
2024/04/18 10:55:00;;;;;;;;;10.50;10.50;;;;;12.65;58.25;98700.25;6273970;20;2789931;-47
2024/04/18 10:57:26;;;;;;;;;6.00;6.00;;;;;12.27;58.68;98697.16;6278450;20;2748223;-45
2024/04/18 10:59:53;;;;;;;;;7.00;7.00;;;;;12.19;60.41;98696.06;6276814;20;2756555;-47
2024/04/18 11:02:20;;;;;;;;;9.00;9.00;;;;;11.84;62.75;98698.00;6278544;20;2756647;-46
2024/04/18 11:04:46;;;;;;;;;7.00;7.00;;;;;11.75;62.90;98695.25;6279101;20;2739874;-45
2024/04/18 11:07:13;;;;;;;;;6.00;6.00;;;;;11.59;65.97;98692.94;6277104;20;2742030;-47
2024/04/18 11:09:40;;;;;;;;;8.00;8.00;;;;;11.78;62.11;98701.19;6283011;20;2737783;-46
2024/04/18 11:12:08;;;;;;;;;7.50;6.50;;;;;11.62;66.15;98704.28;6276936;20;2735727;-45
2024/04/18 11:14:35;;;;;;;;;6.50;6.00;;;;;11.69;68.54;98706.47;6277804;20;2748315;-45
2024/04/18 11:17:01;;;;;;;;;7.00;7.00;;;;;11.57;72.29;98698.44;6279403;20;2741968;-45